Darstellungsparameter: Aktuell verwendete Einstellungen:
Skalierung der Graphiken ... ?
xyx+y,   Skalierungsfaktor:      Skalierung: Modus: x, Faktor: 1
Darstellungszeitraum ... ?
Vom - - bis: - -   Zeitraum: 27.03.2021 - 31.03.2021
Min/Max/Avg-Anzeige ... ?
Zeige MMA aktuell
Zeige MMA Monat
Zeige MMA alles
Zeige --A aktuell
Zeige --A Monat
Zeige --A alles
Keine MMA-Anzeige
MMA:
Keine MMA-Graphiken
MMA-Basis: 27.03.2021 - 31.03.2021
Quicknavigation für Darstellung... ?
Tage:      1T, 2T, 3T, 5T -1T -2T -3T -5T +1T +2T +3T +5T
Wochen: 1W, 2W, 3W -1W -2W -3W +1W +2W +3W
Monate: 1M, 3M, 6M -1M -3M -6M +1M +3M +6M
Jahre:    1J, 3J, 5J, 10J -1J -3J -5J -10J +1J +3J +5J +10J
Nutze für die Darstellung ... ?
Originaldaten oder Mittelwerte auf ...
Stundenbasis Tagesbasis Wochenbasis
Monatsbasis Jahresbasis      Datenbasis: Original-Daten
Darstellen als:
Statistik (Auto) Statistik J:M      Darstellung:
Zur Graphik,    zurück zur Übersicht aller Sensoren.
 
Tabellarische Datenbersicht: ?
 
Sensor: Nr:Datum:Temp:Feuchte:
Aussen-T/F 1 27-03-2021 00:02:18 7.4 C 37 %
2 27-03-2021 00:12:18 7.4 C 37 %
3 27-03-2021 00:22:18 7.7 C 38 %
4 27-03-2021 00:32:17 9 C 35 %
5 27-03-2021 00:42:17 9.2 C 35 %
6 27-03-2021 00:52:18 9.3 C 35 %
7 27-03-2021 01:02:18 9 C 36 %
8 27-03-2021 01:12:18 8.7 C 39 %
9 27-03-2021 01:22:17 9.5 C 36 %
10 27-03-2021 01:32:17 10.1 C 35 %
11 27-03-2021 01:42:18 10.3 C 35 %
12 27-03-2021 01:52:18 10.2 C 35 %
13 27-03-2021 02:02:18 9.6 C 36 %
14 27-03-2021 02:12:18 9.5 C 36 %
15 27-03-2021 02:22:17 10.3 C 35 %
16 27-03-2021 02:32:17 10.2 C 35 %
17 27-03-2021 02:42:17 9.9 C 36 %
18 27-03-2021 02:52:17 8.6 C 36 %
19 27-03-2021 03:02:18 8.4 C 35 %
20 27-03-2021 03:12:18 7.5 C 36 %
21 27-03-2021 03:22:17 7.1 C 37 %
22 27-03-2021 03:32:18 7 C 36 %
23 27-03-2021 03:42:18 6.7 C 37 %
24 27-03-2021 03:52:17 7 C 36 %
25 27-03-2021 04:02:18 7 C 36 %
Sensor: Nr:Datum:Temp:Feuchte:
Aussen-T/F 26 27-03-2021 04:12:18 6.9 C 37 %
27 27-03-2021 04:22:17 6.8 C 37 %
28 27-03-2021 04:32:17 6.9 C 36 %
29 27-03-2021 04:42:17 6.9 C 36 %
30 27-03-2021 04:52:17 6.7 C 37 %
31 27-03-2021 05:02:18 6.6 C 36 %
32 27-03-2021 05:12:18 6.6 C 36 %
33 27-03-2021 05:22:17 6.4 C 36 %
34 27-03-2021 05:32:17 6.2 C 36 %
35 27-03-2021 05:42:18 6 C 36 %
36 27-03-2021 05:52:17 5.8 C 36 %
37 27-03-2021 06:02:17 5.3 C 37 %
38 27-03-2021 06:12:17 5.3 C 37 %
39 27-03-2021 06:22:18 5.4 C 37 %
40 27-03-2021 06:32:17 5.4 C 37 %
41 27-03-2021 06:42:18 5.1 C 37 %
42 27-03-2021 06:52:18 5.3 C 37 %
43 27-03-2021 07:02:17 5.3 C 37 %
44 27-03-2021 07:12:17 5.6 C 37 %
45 27-03-2021 07:22:18 5.4 C 37 %
46 27-03-2021 07:32:17 5.8 C 37 %
47 27-03-2021 07:42:17 6 C 36 %
48 27-03-2021 07:52:17 6.2 C 36 %
49 27-03-2021 08:02:18 6.2 C 36 %
50 27-03-2021 08:12:18 6.1 C 36 %
Sensor: Nr:Datum:Temp:Feuchte:
Aussen-T/F 51 27-03-2021 08:22:17 6.7 C 36 %
52 27-03-2021 08:32:17 6.9 C 36 %
53 27-03-2021 08:42:17 7.1 C 35 %
54 27-03-2021 08:52:18 6.9 C 36 %
55 27-03-2021 09:02:17 5.8 C 39 %
56 27-03-2021 09:12:17 6.9 C 37 %
57 27-03-2021 09:22:18 7.4 C 35 %
58 27-03-2021 09:32:18 7.6 C 35 %
59 27-03-2021 09:42:18 8 C 35 %
60 27-03-2021 09:52:18 7.9 C 35 %
61 27-03-2021 10:02:17 8.4 C 34 %
62 27-03-2021 10:12:17 7.9 C 34 %
63 27-03-2021 10:22:18 7.3 C 35 %
64 27-03-2021 10:32:18 4.7 C 40 %
65 27-03-2021 10:42:18 4.1 C 42 %
66 27-03-2021 10:52:17 4.5 C 42 %
67 27-03-2021 11:02:17 5.5 C 40 %
68 27-03-2021 11:12:17 6 C 39 %
69 27-03-2021 11:22:17 7 C 38 %
70 27-03-2021 11:32:17 7.5 C 37 %
71 27-03-2021 11:42:17 7.9 C 37 %
72 27-03-2021 11:52:17 7.7 C 35 %
73 27-03-2021 12:02:18 5.7 C 40 %
74 27-03-2021 12:12:18 7 C 39 %
75 27-03-2021 12:22:17 9.1 C 36 %
Sensor: Nr:Datum:Temp:Feuchte:
Aussen-T/F 76 27-03-2021 12:32:17 9.2 C 35 %
77 27-03-2021 12:42:17 9.2 C 35 %
78 27-03-2021 12:52:18 8.8 C 36 %
79 27-03-2021 13:02:18 7.8 C 36 %
80 27-03-2021 13:12:18 6.3 C 39 %
81 27-03-2021 13:22:17 6.8 C 39 %
82 27-03-2021 13:32:18 7.9 C 37 %
83 27-03-2021 13:42:18 7 C 36 %
84 27-03-2021 13:52:18 6.6 C 37 %
85 27-03-2021 14:02:18 6.5 C 37 %
86 27-03-2021 14:12:18 7.1 C 36 %
87 27-03-2021 14:22:18 10.1 C 32 %
88 27-03-2021 14:32:18 11.1 C 30 %
89 27-03-2021 14:42:18 12.8 C 30 %
90 27-03-2021 14:52:18 11.4 C 29 %
91 27-03-2021 15:02:18 8.9 C 31 %
92 27-03-2021 15:12:18 9.1 C 31 %
93 27-03-2021 15:22:17 9.2 C 30 %
94 27-03-2021 15:32:17 9.5 C 30 %
95 27-03-2021 15:42:17 9.4 C 30 %
96 27-03-2021 15:52:17 9.8 C 30 %
97 27-03-2021 16:02:17 9.8 C 30 %
98 27-03-2021 16:12:17 10 C 30 %
99 27-03-2021 16:22:18 9.6 C 31 %
100 27-03-2021 16:32:18 9.5 C 31 %
Sensor: Nr:Datum:Temp:Feuchte:
Aussen-T/F 101 27-03-2021 16:42:18 9.6 C 31 %
102 27-03-2021 16:52:18 9.5 C 31 %
103 27-03-2021 17:02:18 9.2 C 32 %
104 27-03-2021 17:12:18 9.3 C 32 %
105 27-03-2021 17:22:17 9 C 32 %
106 27-03-2021 17:32:18 9 C 33 %
107 27-03-2021 17:42:18 8.2 C 33 %
108 27-03-2021 17:52:19 7.9 C 35 %
109 27-03-2021 18:02:18 6.9 C 37 %
110 27-03-2021 18:12:18 5.7 C 38 %
111 27-03-2021 18:22:17 5.3 C 42 %
112 27-03-2021 18:32:18 5.1 C 42 %
113 27-03-2021 18:42:18 4.7 C 43 %
114 27-03-2021 18:52:18 4.5 C 44 %
115 27-03-2021 19:02:18 4.3 C 45 %
116 27-03-2021 19:12:18 4.3 C 45 %
117 27-03-2021 19:22:18 4.9 C 42 %
118 27-03-2021 19:32:18 4.6 C 43 %
119 27-03-2021 19:42:18 4.8 C 42 %
120 27-03-2021 19:52:17 4.8 C 42 %
121 27-03-2021 20:02:18 4.6 C 42 %
122 27-03-2021 20:12:18 4.1 C 43 %
123 27-03-2021 20:22:17 4.2 C 43 %
124 27-03-2021 20:32:17 4.2 C 43 %
125 27-03-2021 20:42:17 4.9 C 42 %
Sensor: Nr:Datum:Temp:Feuchte:
Aussen-T/F 126 27-03-2021 20:52:17 4.9 C 42 %
127 27-03-2021 21:02:17 4.9 C 42 %
128 27-03-2021 21:12:17 5.3 C 41 %
129 27-03-2021 21:22:18 4.9 C 42 %
130 27-03-2021 21:32:18 5 C 41 %
131 27-03-2021 21:42:18 4.3 C 42 %
132 27-03-2021 21:52:18 4.1 C 43 %
133 27-03-2021 22:02:17 3.7 C 44 %
134 27-03-2021 22:12:17 3.9 C 45 %
135 27-03-2021 22:22:18 3.7 C 44 %
136 27-03-2021 22:32:17 4.3 C 42 %
137 27-03-2021 22:42:17 3.9 C 43 %
138 27-03-2021 22:52:17 4.1 C 42 %
139 27-03-2021 23:02:18 3.5 C 43 %
140 27-03-2021 23:12:18 3.2 C 45 %
141 27-03-2021 23:22:18 3.1 C 46 %
142 27-03-2021 23:32:17 3.1 C 46 %
143 27-03-2021 23:42:17 3.6 C 44 %
144 27-03-2021 23:52:18 3.7 C 44 %
145 28-03-2021 00:02:17 3.5 C 44 %
146 28-03-2021 00:12:17 3.3 C 44 %
147 28-03-2021 00:22:17 3.8 C 44 %
148 28-03-2021 00:32:17 3.7 C 44 %
149 28-03-2021 00:42:17 3.5 C 44 %
150 28-03-2021 00:52:18 3 C 45 %
Sensor: Nr:Datum:Temp:Feuchte:
Aussen-T/F 151 28-03-2021 01:02:17 3.4 C 45 %
152 28-03-2021 01:12:17 3.5 C 45 %
153 28-03-2021 01:22:17 4.1 C 44 %
154 28-03-2021 01:32:17 4.1 C 44 %
155 28-03-2021 01:42:17 4.2 C 43 %
156 28-03-2021 01:52:17 4.4 C 43 %
157 28-03-2021 02:02:17 4.4 C 43 %
158 28-03-2021 02:12:17 4.4 C 42 %
159 28-03-2021 02:22:17 4.4 C 43 %
160 28-03-2021 02:32:17 4.6 C 43 %
161 28-03-2021 02:42:18 4.7 C 42 %
162 28-03-2021 02:52:18 4.6 C 43 %
163 28-03-2021 04:02:18 4.7 C 43 %
164 28-03-2021 04:12:18 4.8 C 43 %
165 28-03-2021 04:22:18 4.8 C 43 %
166 28-03-2021 04:32:17 4.8 C 43 %
167 28-03-2021 04:42:17 4.8 C 43 %
168 28-03-2021 04:52:18 4.8 C 43 %
169 28-03-2021 05:02:17 4.6 C 43 %
170 28-03-2021 05:12:17 4.3 C 43 %
171 28-03-2021 05:22:17 4.5 C 43 %
172 28-03-2021 05:32:18 4.2 C 43 %
173 28-03-2021 05:42:18 4 C 43 %
174 28-03-2021 05:52:18 3.9 C 45 %
175 28-03-2021 06:02:17 3.8 C 45 %
Sensor: Nr:Datum:Temp:Feuchte:
Aussen-T/F 176 28-03-2021 06:12:18 3.8 C 45 %
177 28-03-2021 06:22:17 3.8 C 45 %
178 28-03-2021 06:32:17 3.7 C 45 %
179 28-03-2021 06:42:17 3.9 C 45 %
180 28-03-2021 06:52:17 3.9 C 45 %
181 28-03-2021 07:02:18 4.1 C 43 %
182 28-03-2021 07:12:18 4.3 C 43 %
183 28-03-2021 07:22:17 4.7 C 42 %
184 28-03-2021 07:32:18 4.8 C 42 %
185 28-03-2021 07:42:18 5.3 C 41 %
186 28-03-2021 07:52:18 5.3 C 41 %
187 28-03-2021 08:02:17 5.4 C 41 %
188 28-03-2021 08:12:18 5.4 C 41 %
189 28-03-2021 08:22:17 5.6 C 41 %
190 28-03-2021 08:32:18 5.7 C 41 %
191 28-03-2021 08:42:18 6 C 40 %
192 28-03-2021 08:52:18 5.8 C 41 %
193 28-03-2021 09:02:17 6 C 40 %
194 28-03-2021 09:12:17 6.4 C 40 %
195 28-03-2021 09:22:18 6.7 C 40 %
196 28-03-2021 09:32:18 7.1 C 39 %
197 28-03-2021 09:42:18 7.2 C 39 %
198 28-03-2021 09:52:18 7.5 C 39 %
199 28-03-2021 10:02:17 7.6 C 38 %
200 28-03-2021 10:12:18 7 C 39 %
Sensor: Nr:Datum:Temp:Feuchte:
Aussen-T/F 201 28-03-2021 10:22:18 7 C 40 %
202 28-03-2021 10:32:17 8.5 C 37 %
203 28-03-2021 10:42:17 10.3 C 35 %
204 28-03-2021 10:52:17 10.8 C 35 %
205 28-03-2021 11:02:17 10.8 C 34 %
206 28-03-2021 11:12:17 11.4 C 33 %
207 28-03-2021 11:22:17 11.2 C 33 %
208 28-03-2021 11:32:17 11.8 C 33 %
209 28-03-2021 11:42:17 12.5 C 32 %
210 28-03-2021 11:52:17 12.2 C 31 %
211 28-03-2021 12:02:18 13.1 C 30 %
212 28-03-2021 12:12:18 13 C 29 %
213 28-03-2021 12:22:18 13.2 C 28 %
214 28-03-2021 12:32:18 14.4 C 27 %
215 28-03-2021 12:42:18 13.1 C 27 %
216 28-03-2021 12:52:17 13.7 C 28 %
217 28-03-2021 13:02:17 13.8 C 27 %
218 28-03-2021 13:12:17 14.4 C 26 %
219 28-03-2021 13:22:18 13.4 C 26 %
220 28-03-2021 13:32:18 14.8 C 26 %
221 28-03-2021 13:42:18 14 C 26 %
222 28-03-2021 13:52:18 14.4 C 26 %
223 28-03-2021 14:02:18 14.7 C 26 %
224 28-03-2021 14:12:18 15.6 C 25 %
225 28-03-2021 14:22:18 16.2 C 25 %
Sensor: Nr:Datum:Temp:Feuchte:
Aussen-T/F 226 28-03-2021 14:32:18 16.3 C 25 %
227 28-03-2021 14:42:18 15.3 C 25 %
228 28-03-2021 14:52:18 16.5 C 25 %
229 28-03-2021 15:02:18 15.9 C 25 %
230 28-03-2021 15:12:18 17.3 C 24 %
231 28-03-2021 15:22:18 18.1 C 22 %
232 28-03-2021 15:32:18 18.2 C 22 %
233 28-03-2021 15:42:18 17.2 C 22 %
234 28-03-2021 15:52:18 16.6 C 22 %
235 28-03-2021 16:02:18 18.1 C 21 %
236 28-03-2021 16:12:18 17.2 C 22 %
237 28-03-2021 16:22:18 17.6 C 22 %
238 28-03-2021 16:32:17 17.6 C 22 %
239 28-03-2021 16:42:18 17.1 C 22 %
240 28-03-2021 16:52:17 16.7 C 22 %
241 28-03-2021 17:02:18 16.7 C 22 %
242 28-03-2021 17:12:18 15.8 C 23 %
243 28-03-2021 17:22:18 15.6 C 23 %
244 28-03-2021 17:32:18 15.7 C 23 %
245 28-03-2021 17:42:18 15.8 C 24 %
246 28-03-2021 17:52:18 16 C 23 %
247 28-03-2021 18:02:17 15.8 C 23 %
248 28-03-2021 18:12:17 15.8 C 24 %
249 28-03-2021 18:22:17 15.6 C 23 %
250 28-03-2021 18:32:17 15.7 C 23 %
Sensor: Nr:Datum:Temp:Feuchte:
Aussen-T/F 251 28-03-2021 18:42:17 15.1 C 23 %
252 28-03-2021 18:52:17 14.7 C 25 %
253 28-03-2021 19:02:18 14.4 C 25 %
254 28-03-2021 19:12:18 14.1 C 25 %
255 28-03-2021 19:22:18 13.5 C 26 %
256 28-03-2021 19:32:18 13.5 C 26 %
257 28-03-2021 19:42:18 12.6 C 28 %
258 28-03-2021 19:52:18 12.4 C 27 %
259 28-03-2021 20:02:18 12.7 C 27 %
260 28-03-2021 20:12:18 12.4 C 27 %
261 28-03-2021 20:22:17 12 C 28 %
262 28-03-2021 20:32:18 12 C 27 %
263 28-03-2021 20:42:18 11.3 C 30 %
264 28-03-2021 20:52:17 10.3 C 31 %
265 28-03-2021 21:02:18 10 C 31 %
266 28-03-2021 21:12:18 9.9 C 32 %
267 28-03-2021 21:22:17 9.6 C 32 %
268 28-03-2021 21:32:17 9.2 C 33 %
269 28-03-2021 21:42:17 8.9 C 34 %
270 28-03-2021 21:52:18 8.6 C 34 %
271 28-03-2021 22:02:17 8.6 C 35 %
272 28-03-2021 22:12:18 8.4 C 35 %
273 28-03-2021 22:22:18 8.4 C 35 %
274 28-03-2021 22:32:18 8.4 C 35 %
275 28-03-2021 22:42:18 8.4 C 35 %
Sensor: Nr:Datum:Temp:Feuchte:
Aussen-T/F 276 28-03-2021 22:52:18 8.4 C 35 %
277 28-03-2021 23:02:18 8.2 C 35 %
278 28-03-2021 23:12:18 8.2 C 35 %
279 28-03-2021 23:22:18 8 C 35 %
280 28-03-2021 23:32:18 8 C 35 %
281 28-03-2021 23:42:18 7.7 C 36 %
282 28-03-2021 23:52:17 7.7 C 36 %
283 29-03-2021 00:02:17 7.6 C 36 %
284 29-03-2021 00:12:17 7.4 C 36 %
285 29-03-2021 00:22:17 7.2 C 37 %
286 29-03-2021 00:32:17 7.3 C 36 %
287 29-03-2021 00:42:17 6.7 C 37 %
288 29-03-2021 00:52:17 6.8 C 37 %
289 29-03-2021 01:02:17 6.6 C 37 %
290 29-03-2021 01:12:18 6.3 C 38 %
291 29-03-2021 01:22:17 6.1 C 38 %
292 29-03-2021 01:32:17 5.4 C 39 %
293 29-03-2021 01:42:17 5 C 40 %
294 29-03-2021 01:52:18 4.8 C 40 %
295 29-03-2021 02:02:17 5.1 C 40 %
296 29-03-2021 02:12:17 5.1 C 40 %
297 29-03-2021 02:22:17 5 C 40 %
298 29-03-2021 02:32:17 4.7 C 41 %
299 29-03-2021 02:42:17 4.5 C 41 %
300 29-03-2021 02:52:17 4.1 C 42 %
Sensor: Nr:Datum:Temp:Feuchte:
Aussen-T/F 301 29-03-2021 03:02:18 4 C 42 %
302 29-03-2021 03:12:18 4 C 42 %
303 29-03-2021 03:22:17 3.7 C 43 %
304 29-03-2021 03:32:17 3.6 C 44 %
305 29-03-2021 03:42:17 3.7 C 44 %
306 29-03-2021 03:52:17 3.8 C 45 %
307 29-03-2021 04:02:17 3.9 C 44 %
308 29-03-2021 04:12:18 3.5 C 44 %
309 29-03-2021 04:22:17 3.7 C 44 %
310 29-03-2021 04:32:17 3.5 C 44 %
311 29-03-2021 04:42:18 3.4 C 44 %
312 29-03-2021 04:52:17 3.2 C 44 %
313 29-03-2021 05:02:17 3 C 45 %
314 29-03-2021 05:12:18 2.9 C 46 %
315 29-03-2021 05:22:18 2.8 C 46 %
316 29-03-2021 05:32:17 3.1 C 45 %
317 29-03-2021 05:42:18 3 C 45 %
318 29-03-2021 05:52:17 3 C 45 %
319 29-03-2021 06:02:17 3.1 C 45 %
320 29-03-2021 06:12:17 3.1 C 45 %
321 29-03-2021 06:22:17 3.1 C 45 %
322 29-03-2021 06:32:18 3 C 45 %
323 29-03-2021 06:42:18 3 C 45 %
324 29-03-2021 06:52:18 2.7 C 46 %
325 29-03-2021 07:02:18 2.7 C 46 %
Sensor: Nr:Datum:Temp:Feuchte:
Aussen-T/F 326 29-03-2021 07:12:18 2.6 C 46 %
327 29-03-2021 07:22:18 2.6 C 47 %
328 29-03-2021 07:32:18 2.7 C 47 %
329 29-03-2021 07:42:18 2.8 C 47 %
330 29-03-2021 07:52:18 2.7 C 47 %
331 29-03-2021 08:02:18 3.1 C 46 %
332 29-03-2021 08:12:18 3.5 C 45 %
333 29-03-2021 08:22:18 3.5 C 45 %
334 29-03-2021 08:32:18 3.3 C 45 %
335 29-03-2021 08:42:18 3.4 C 45 %
336 29-03-2021 08:52:18 3.4 C 45 %
337 29-03-2021 09:02:18 3.5 C 45 %
338 29-03-2021 09:12:18 3.9 C 45 %
339 29-03-2021 09:22:17 4.4 C 44 %
340 29-03-2021 09:32:18 4.7 C 43 %
341 29-03-2021 09:42:18 5.4 C 42 %
342 29-03-2021 09:52:18 6.2 C 40 %
343 29-03-2021 10:02:17 6.6 C 40 %
344 29-03-2021 10:12:17 7.4 C 38 %
345 29-03-2021 10:22:17 8 C 37 %
346 29-03-2021 10:32:17 8.7 C 37 %
347 29-03-2021 10:42:18 10.4 C 35 %
348 29-03-2021 10:52:18 11.6 C 33 %
349 29-03-2021 11:02:18 12.8 C 31 %
350 29-03-2021 11:12:18 13.8 C 29 %
Sensor: Nr:Datum:Temp:Feuchte:
Aussen-T/F 351 29-03-2021 11:22:18 14.6 C 28 %
352 29-03-2021 11:32:18 15.1 C 26 %
353 29-03-2021 11:42:18 15.4 C 26 %
354 29-03-2021 11:52:18 17.3 C 25 %
355 29-03-2021 12:02:18 17.7 C 25 %
356 29-03-2021 12:12:18 17.5 C 24 %
357 29-03-2021 12:22:18 18.4 C 23 %
358 29-03-2021 12:32:17 18.8 C 22 %
359 29-03-2021 12:42:17 17.9 C 23 %
360 29-03-2021 12:52:18 18.2 C 22 %
361 29-03-2021 13:02:18 19.4 C 21 %
362 29-03-2021 13:12:18 19.3 C 21 %
363 29-03-2021 13:22:17 18.9 C 21 %
364 29-03-2021 13:32:17 19.3 C 21 %
365 29-03-2021 13:42:17 19.1 C 20 %
366 29-03-2021 13:52:17 19.5 C 21 %
367 29-03-2021 14:02:18 20.4 C 20 %
368 29-03-2021 14:12:18 20.7 C 20 %
369 29-03-2021 14:22:17 22 C 20 %
370 29-03-2021 14:32:18 23 C 20 %
371 29-03-2021 14:42:18 23.2 C 20 %
372 29-03-2021 14:52:18 24.4 C 20 %
373 29-03-2021 15:02:17 23 C 20 %
374 29-03-2021 15:12:17 24.1 C 20 %
375 29-03-2021 15:22:17 24.5 C 20 %
Sensor: Nr:Datum:Temp:Feuchte:
Aussen-T/F 376 29-03-2021 15:32:18 24.1 C 20 %
377 29-03-2021 15:42:18 26.5 C 20 %
378 29-03-2021 15:52:18 24.8 C 20 %
379 29-03-2021 16:02:18 25.1 C 20 %
380 29-03-2021 16:12:18 25.8 C 20 %
381 29-03-2021 16:22:18 24.9 C 20 %
382 29-03-2021 16:32:17 24.8 C 20 %
383 29-03-2021 16:42:17 25.2 C 20 %
384 29-03-2021 16:52:18 25.9 C 20 %
385 29-03-2021 17:02:17 25.7 C 20 %
386 29-03-2021 17:12:17 23.8 C 20 %
387 29-03-2021 17:22:18 25.5 C 20 %
388 29-03-2021 17:32:17 25.9 C 20 %
389 29-03-2021 17:42:17 25 C 20 %
390 29-03-2021 17:52:18 23.7 C 20 %
391 29-03-2021 18:02:17 22.5 C 20 %
392 29-03-2021 18:12:17 22 C 20 %
393 29-03-2021 18:22:18 21.6 C 20 %
394 29-03-2021 18:32:18 21.7 C 20 %
395 29-03-2021 18:42:18 21.3 C 20 %
396 29-03-2021 18:52:18 20.9 C 20 %
397 29-03-2021 19:02:18 20.1 C 20 %
398 29-03-2021 19:12:18 18.8 C 21 %
399 29-03-2021 19:22:17 18.1 C 21 %
400 29-03-2021 19:32:17 17.3 C 22 %
Sensor: Nr:Datum:Temp:Feuchte:
Aussen-T/F 401 29-03-2021 19:42:18 16.5 C 23 %
402 29-03-2021 19:52:18 16.1 C 23 %
403 29-03-2021 20:02:18 15.3 C 25 %
404 29-03-2021 20:12:18 15 C 25 %
405 29-03-2021 20:22:17 14.4 C 26 %
406 29-03-2021 20:32:17 14.5 C 26 %
407 29-03-2021 20:42:18 14.1 C 27 %
408 29-03-2021 20:52:17 13.8 C 27 %
409 29-03-2021 21:02:18 13.3 C 27 %
410 29-03-2021 21:12:18 13.4 C 27 %
411 29-03-2021 21:22:17 13.1 C 28 %
412 29-03-2021 21:32:17 12.5 C 30 %
413 29-03-2021 21:42:17 11.7 C 31 %
414 29-03-2021 21:52:17 11.6 C 31 %
415 29-03-2021 22:02:18 11.2 C 31 %
416 29-03-2021 22:12:18 10.1 C 32 %
417 29-03-2021 22:22:18 9.6 C 34 %
418 29-03-2021 22:32:18 8.9 C 35 %
419 29-03-2021 22:42:18 8.9 C 35 %
420 29-03-2021 22:52:18 8.6 C 35 %
421 29-03-2021 23:02:18 8.2 C 35 %
422 29-03-2021 23:12:18 8.1 C 35 %
423 29-03-2021 23:22:18 8 C 35 %
424 29-03-2021 23:32:17 7.8 C 36 %
425 29-03-2021 23:42:17 7.7 C 36 %
Sensor: Nr:Datum:Temp:Feuchte:
Aussen-T/F 426 29-03-2021 23:52:18 7.9 C 36 %
427 30-03-2021 00:02:17 7.3 C 36 %
428 30-03-2021 00:12:17 6.8 C 38 %
429 30-03-2021 00:22:17 6.8 C 38 %
430 30-03-2021 00:32:17 6.6 C 38 %
431 30-03-2021 00:42:17 6.3 C 38 %
432 30-03-2021 00:52:17 6.1 C 39 %
433 30-03-2021 01:02:18 5.8 C 39 %
434 30-03-2021 01:12:18 5.7 C 40 %
435 30-03-2021 01:22:17 5.6 C 40 %
436 30-03-2021 01:32:17 5.4 C 40 %
437 30-03-2021 01:42:17 5.3 C 40 %
438 30-03-2021 01:52:18 5.3 C 40 %
439 30-03-2021 02:02:18 5.2 C 40 %
440 30-03-2021 02:12:18 5 C 40 %
441 30-03-2021 02:22:18 4.8 C 41 %
442 30-03-2021 02:32:17 4.6 C 41 %
443 30-03-2021 02:42:17 4.5 C 42 %
444 30-03-2021 02:52:17 4.4 C 41 %
445 30-03-2021 03:02:17 4.2 C 42 %
446 30-03-2021 03:12:17 4.4 C 42 %
447 30-03-2021 03:22:17 4.3 C 42 %
448 30-03-2021 03:32:18 3.8 C 43 %
449 30-03-2021 03:42:18 3.5 C 43 %
450 30-03-2021 03:52:17 3.5 C 44 %
Sensor: Nr:Datum:Temp:Feuchte:
Aussen-T/F 451 30-03-2021 04:02:17 3.3 C 44 %
452 30-03-2021 04:12:17 3.2 C 44 %
453 30-03-2021 04:22:17 2.8 C 45 %
454 30-03-2021 04:32:17 2.5 C 45 %
455 30-03-2021 04:42:17 2.6 C 46 %
456 30-03-2021 04:52:17 2.7 C 46 %
457 30-03-2021 05:02:17 2.5 C 46 %
458 30-03-2021 05:12:17 2.4 C 46 %
459 30-03-2021 05:22:17 1.9 C 47 %
460 30-03-2021 05:32:18 1.8 C 47 %
461 30-03-2021 05:42:18 1.8 C 48 %
462 30-03-2021 05:52:17 1.7 C 48 %
463 30-03-2021 06:02:18 1.5 C 47 %
464 30-03-2021 06:12:18 1.5 C 49 %
465 30-03-2021 06:22:18 2 C 48 %
466 30-03-2021 06:32:17 2.1 C 48 %
467 30-03-2021 06:42:17 2.1 C 47 %
468 30-03-2021 06:52:18 2.2 C 47 %
469 30-03-2021 07:02:17 1.4 C 47 %
470 30-03-2021 07:12:17 1.6 C 49 %
471 30-03-2021 07:22:18 1.5 C 48 %
472 30-03-2021 07:32:18 1.4 C 48 %
473 30-03-2021 07:42:18 1.3 C 48 %
474 30-03-2021 07:52:17 1.2 C 48 %
475 30-03-2021 08:02:17 1.1 C 48 %
Sensor: Nr:Datum:Temp:Feuchte:
Aussen-T/F 476 30-03-2021 08:12:17 1.1 C 49 %
477 30-03-2021 08:22:18 1.6 C 50 %
478 30-03-2021 08:32:18 1.5 C 49 %
479 30-03-2021 08:42:18 1.7 C 49 %
480 30-03-2021 08:52:17 2.1 C 49 %
481 30-03-2021 09:02:17 2.1 C 48 %
482 30-03-2021 09:12:17 2.5 C 47 %
483 30-03-2021 09:22:17 2.7 C 47 %
484 30-03-2021 09:32:17 2.8 C 46 %
485 30-03-2021 09:42:17 3.2 C 47 %
486 30-03-2021 09:52:18 3.5 C 46 %
487 30-03-2021 10:02:18 4.1 C 45 %
488 30-03-2021 10:12:18 4.5 C 44 %
489 30-03-2021 10:22:17 4.9 C 44 %
490 30-03-2021 10:32:18 5.7 C 43 %
491 30-03-2021 10:42:18 6.5 C 41 %
492 30-03-2021 10:52:17 7.4 C 40 %
493 30-03-2021 11:02:17 8.7 C 39 %
494 30-03-2021 11:12:17 9.7 C 38 %
495 30-03-2021 11:22:18 11.3 C 35 %
496 30-03-2021 11:32:17 13 C 31 %
497 30-03-2021 11:42:17 13.5 C 30 %
498 30-03-2021 11:52:17 15.4 C 30 %
499 30-03-2021 12:02:17 17.2 C 27 %
500 30-03-2021 12:12:17 17.8 C 25 %
Sensor: Nr:Datum:Temp:Feuchte:
Aussen-T/F 501 30-03-2021 12:22:18 18 C 25 %
502 30-03-2021 12:32:17 21.1 C 22 %
503 30-03-2021 12:42:17 19.5 C 23 %
504 30-03-2021 12:52:17 18.1 C 25 %
505 30-03-2021 13:02:17 19.8 C 23 %
506 30-03-2021 13:12:17 19.4 C 23 %
507 30-03-2021 13:22:17 19.5 C 23 %
508 30-03-2021 13:32:17 19.7 C 23 %
509 30-03-2021 13:42:17 20.2 C 21 %
510 30-03-2021 13:52:17 20.5 C 21 %
511 30-03-2021 14:02:17 22 C 20 %
512 30-03-2021 14:12:17 22.1 C 20 %
513 30-03-2021 14:22:18 24.1 C 20 %
514 30-03-2021 14:32:18 26.3 C 20 %
515 30-03-2021 14:42:18 27.1 C 20 %
516 30-03-2021 14:52:18 26.8 C 20 %
517 30-03-2021 15:02:18 27.8 C 20 %
518 30-03-2021 15:12:18 28.3 C 20 %
519 30-03-2021 15:22:18 29.7 C 20 %
520 30-03-2021 15:32:18 28.1 C 20 %
521 30-03-2021 15:42:18 29.3 C 20 %
522 30-03-2021 15:52:17 30.2 C 20 %
523 30-03-2021 16:02:18 30.1 C 20 %
524 30-03-2021 16:12:18 31.2 C 20 %
525 30-03-2021 16:22:18 31.2 C 20 %
Sensor: Nr:Datum:Temp:Feuchte:
Aussen-T/F 526 30-03-2021 16:32:18 32.2 C 20 %
527 30-03-2021 16:42:18 30.2 C 20 %
528 30-03-2021 16:52:17 29.8 C 20 %
529 30-03-2021 17:02:17 28.8 C 20 %
530 30-03-2021 17:12:18 28.4 C 20 %
531 30-03-2021 17:22:17 29.2 C 20 %
532 30-03-2021 17:32:17 26.6 C 20 %
533 30-03-2021 17:42:17 28.5 C 20 %
534 30-03-2021 17:52:17 26.6 C 20 %
535 30-03-2021 18:02:17 24.6 C 20 %
536 30-03-2021 18:12:17 24.6 C 20 %
537 30-03-2021 18:22:17 24.1 C 20 %
538 30-03-2021 18:32:17 24.1 C 20 %
539 30-03-2021 18:42:17 23.7 C 20 %
540 30-03-2021 18:52:17 22.5 C 20 %
541 30-03-2021 19:02:18 21.6 C 20 %
542 30-03-2021 19:12:18 20.5 C 20 %
543 30-03-2021 19:22:18 19.1 C 20 %
544 30-03-2021 19:32:17 18.4 C 20 %
545 30-03-2021 19:42:18 17.9 C 20 %
546 30-03-2021 19:52:17 17.1 C 20 %
547 30-03-2021 20:02:17 16.6 C 20 %
548 30-03-2021 20:12:17 16 C 20 %
549 30-03-2021 20:22:18 16 C 20 %
550 30-03-2021 20:32:18 15.8 C 21 %
Sensor: Nr:Datum:Temp:Feuchte:
Aussen-T/F 551 30-03-2021 20:42:18 15.4 C 21 %
552 30-03-2021 20:52:17 14.8 C 23 %
553 30-03-2021 21:02:18 14.6 C 23 %
554 30-03-2021 21:12:18 13.8 C 25 %
555 30-03-2021 21:22:18 13.3 C 25 %
556 30-03-2021 21:32:18 12 C 27 %
557 30-03-2021 21:42:18 11.2 C 29 %
558 30-03-2021 21:52:17 11.1 C 30 %
559 30-03-2021 22:02:17 10.4 C 31 %
560 30-03-2021 22:12:17 10.5 C 31 %
561 30-03-2021 22:22:18 10.5 C 31 %
562 30-03-2021 22:32:17 9.9 C 31 %
563 30-03-2021 22:42:17 9.6 C 31 %
564 30-03-2021 22:52:17 9 C 33 %
565 30-03-2021 23:02:18 9 C 32 %
566 30-03-2021 23:12:18 8.5 C 33 %
567 30-03-2021 23:22:18 8.5 C 34 %
568 30-03-2021 23:32:18 8.2 C 34 %
569 30-03-2021 23:42:18 8 C 34 %
570 30-03-2021 23:52:18 7.8 C 35 %
571 31-03-2021 00:02:17 8 C 34 %
572 31-03-2021 00:12:17 7.6 C 35 %
573 31-03-2021 00:22:17 7.6 C 35 %
574 31-03-2021 00:32:17 7.7 C 35 %
575 31-03-2021 00:42:17 7.2 C 35 %
Sensor: Nr:Datum:Temp:Feuchte:
Aussen-T/F 576 31-03-2021 00:52:17 7.2 C 35 %
577 31-03-2021 01:02:17 6.7 C 36 %
578 31-03-2021 01:12:17 6.8 C 36 %
579 31-03-2021 01:22:17 6.4 C 37 %
580 31-03-2021 01:32:18 6.2 C 37 %
581 31-03-2021 01:42:18 6.2 C 37 %
582 31-03-2021 01:52:17 6.1 C 37 %
583 31-03-2021 02:02:17 5.9 C 38 %
584 31-03-2021 02:12:17 5.6 C 39 %
585 31-03-2021 02:22:17 5.5 C 39 %
586 31-03-2021 02:32:17 5.4 C 39 %
587 31-03-2021 02:42:17 5.2 C 40 %
588 31-03-2021 02:52:17 5.7 C 39 %
589 31-03-2021 03:02:17 5.1 C 40 %
590 31-03-2021 03:12:17 4.9 C 40 %
591 31-03-2021 03:22:17 4.8 C 41 %
592 31-03-2021 03:32:18 4.3 C 41 %
593 31-03-2021 03:42:18 4.5 C 41 %
594 31-03-2021 03:52:17 4.6 C 41 %
595 31-03-2021 04:02:17 4.3 C 41 %
596 31-03-2021 04:12:17 4.2 C 41 %
597 31-03-2021 04:22:17 4.1 C 41 %
598 31-03-2021 04:32:17 4 C 42 %
599 31-03-2021 04:42:18 3.6 C 43 %
600 31-03-2021 04:52:17 3.5 C 43 %
Sensor: Nr:Datum:Temp:Feuchte:
Aussen-T/F 601 31-03-2021 05:02:17 3.3 C 44 %
602 31-03-2021 05:12:17 3.2 C 44 %
603 31-03-2021 05:22:18 3 C 44 %
604 31-03-2021 05:32:18 3.3 C 44 %
605 31-03-2021 05:42:18 3.3 C 44 %
606 31-03-2021 05:52:17 3.2 C 44 %
607 31-03-2021 06:02:17 3.3 C 45 %
608 31-03-2021 06:12:17 2.9 C 45 %
609 31-03-2021 06:22:17 2.7 C 45 %
610 31-03-2021 06:32:17 2.4 C 45 %
611 31-03-2021 06:42:17 2.2 C 45 %
612 31-03-2021 06:52:18 2.4 C 46 %
613 31-03-2021 07:02:17 2.5 C 46 %
614 31-03-2021 07:12:17 2.2 C 46 %
615 31-03-2021 07:22:18 2.3 C 46 %
616 31-03-2021 07:32:18 2.5 C 46 %
617 31-03-2021 07:42:18 2.7 C 46 %
618 31-03-2021 07:52:18 2.7 C 46 %
619 31-03-2021 08:02:17 2.8 C 46 %
620 31-03-2021 08:12:17 3.3 C 46 %
621 31-03-2021 08:22:18 3.1 C 45 %
622 31-03-2021 08:32:18 3.4 C 45 %
623 31-03-2021 08:42:18 3.6 C 45 %
624 31-03-2021 08:52:18 3.8 C 45 %
625 31-03-2021 09:02:17 4 C 43 %
Sensor: Nr:Datum:Temp:Feuchte:
Aussen-T/F 626 31-03-2021 09:12:18 4.3 C 43 %
627 31-03-2021 09:22:18 4.7 C 43 %
628 31-03-2021 09:32:17 5.1 C 42 %
629 31-03-2021 09:42:18 5.6 C 41 %
630 31-03-2021 09:52:18 5.7 C 41 %
631 31-03-2021 10:02:18 6 C 40 %
632 31-03-2021 10:12:18 6.8 C 40 %
633 31-03-2021 10:22:18 7 C 39 %
634 31-03-2021 10:32:18 7.6 C 39 %
635 31-03-2021 10:42:18 8.3 C 38 %
636 31-03-2021 10:52:18 9.7 C 37 %
637 31-03-2021 11:02:18 11.2 C 35 %
638 31-03-2021 11:12:18 12 C 33 %
639 31-03-2021 11:22:18 13.4 C 31 %
640 31-03-2021 11:32:18 15.2 C 30 %
641 31-03-2021 11:42:18 16.1 C 28 %
642 31-03-2021 11:52:18 17.1 C 27 %
643 31-03-2021 12:02:17 19.6 C 25 %
644 31-03-2021 12:12:17 21.6 C 22 %
645 31-03-2021 12:22:17 22.4 C 22 %
646 31-03-2021 12:32:17 24 C 20 %
647 31-03-2021 12:42:17 24.6 C 20 %
648 31-03-2021 12:52:18 20.8 C 20 %
649 31-03-2021 13:02:17 22.7 C 20 %
650 31-03-2021 13:12:17 23.3 C 20 %
Sensor: Nr:Datum:Temp:Feuchte:
Aussen-T/F 651 31-03-2021 13:22:17 22.4 C 20 %
652 31-03-2021 13:32:18 22.2 C 20 %
653 31-03-2021 13:42:18 23.1 C 20 %
654 31-03-2021 13:52:18 23.2 C 20 %
655 31-03-2021 14:02:18 23.5 C 20 %
656 31-03-2021 14:12:18 24.1 C 20 %
657 31-03-2021 14:22:17 26.4 C 20 %
658 31-03-2021 14:32:17 28.3 C 20 %
659 31-03-2021 14:42:18 30.2 C 20 %
660 31-03-2021 14:52:17 30 C 20 %
661 31-03-2021 15:02:17 29.6 C 20 %
662 31-03-2021 15:12:18 29.2 C 20 %
663 31-03-2021 15:22:17 29.5 C 20 %
664 31-03-2021 15:32:18 32.4 C 20 %
665 31-03-2021 15:42:18 31.4 C 20 %
666 31-03-2021 15:52:17 30.4 C 20 %
667 31-03-2021 16:02:17 31 C 20 %
668 31-03-2021 16:12:18 31.1 C 20 %
669 31-03-2021 16:22:17 31.5 C 20 %
670 31-03-2021 16:32:18 29.8 C 20 %
671 31-03-2021 16:42:18 30.7 C 20 %
672 31-03-2021 16:52:18 30 C 20 %
673 31-03-2021 17:02:17 30.1 C 20 %
674 31-03-2021 17:12:18 30.8 C 20 %
675 31-03-2021 17:22:17 30.7 C 20 %
Sensor: Nr:Datum:Temp:Feuchte:
Aussen-T/F 676 31-03-2021 17:32:18 29.7 C 20 %
677 31-03-2021 17:42:18 30.6 C 20 %
678 31-03-2021 17:52:18 27.6 C 20 %
679 31-03-2021 18:02:18 26.7 C 20 %
680 31-03-2021 18:12:18 26.1 C 20 %
681 31-03-2021 18:22:18 26.1 C 20 %
682 31-03-2021 18:32:18 25.5 C 20 %
683 31-03-2021 18:42:18 25.2 C 20 %
684 31-03-2021 18:52:17 24.8 C 20 %
685 31-03-2021 19:02:17 24.1 C 20 %
686 31-03-2021 19:12:17 24 C 20 %
687 31-03-2021 19:22:18 23.2 C 20 %
688 31-03-2021 19:32:17 21.8 C 20 %
689 31-03-2021 19:42:17 20.7 C 20 %
690 31-03-2021 19:52:18 19.5 C 21 %
691 31-03-2021 20:02:17 18.6 C 22 %
692 31-03-2021 20:12:18 18.6 C 22 %
693 31-03-2021 20:22:17 18.1 C 22 %
694 31-03-2021 20:32:18 17.9 C 23 %
695 31-03-2021 20:42:18 17 C 24 %
696 31-03-2021 20:52:18 16.8 C 25 %
697 31-03-2021 21:02:18 16.3 C 25 %
698 31-03-2021 21:12:18 15.2 C 26 %
699 31-03-2021 21:22:17 15 C 27 %
700 31-03-2021 21:32:17 14.6 C 28 %
Sensor: Nr:Datum:Temp:Feuchte:
Aussen-T/F 701 31-03-2021 21:42:18 14.1 C 28 %
702 31-03-2021 21:52:18 13.8 C 29 %
703 31-03-2021 22:02:18 13.1 C 30 %
704 31-03-2021 22:12:18 13.2 C 30 %
705 31-03-2021 22:22:18 13.1 C 30 %
706 31-03-2021 22:32:17 13.1 C 30 %
707 31-03-2021 22:42:17 15.1 C 27 %
708 31-03-2021 22:52:18 13.8 C 29 %
709 31-03-2021 23:02:18 12.5 C 31 %
710 31-03-2021 23:12:18 12 C 31 %
711 31-03-2021 23:22:17 11.9 C 32 %
712 31-03-2021 23:32:18 12 C 31 %
713 31-03-2021 23:42:18 11.3 C 32 %
714 31-03-2021 23:52:18 11.1 C 32 %
Sensor: Nr:Datum:Temp:Feuchte:
G-T/H 1 27-03-2021 00:02:18 11.7 C 65 %
2 27-03-2021 00:12:18 11.6 C 65 %
3 27-03-2021 00:22:18 11.6 C 65 %
4 27-03-2021 00:32:17 11.6 C 65 %
5 27-03-2021 00:42:17 11.6 C 65 %
6 27-03-2021 00:52:18 11.6 C 65 %
7 27-03-2021 01:02:18 11.5 C 66 %
8 27-03-2021 01:12:18 11.5 C 66 %
9 27-03-2021 01:22:17 11.6 C 66 %
10 27-03-2021 01:32:17 11.6 C 66 %
11 27-03-2021 01:42:18 11.6 C 66 %
12 27-03-2021 01:52:18 11.6 C 66 %
13 27-03-2021 02:02:18 11.5 C 66 %
14 27-03-2021 02:12:18 11.5 C 66 %
15 27-03-2021 02:22:17 11.5 C 66 %
16 27-03-2021 02:32:17 11.5 C 66 %
17 27-03-2021 02:42:17 11.5 C 66 %
18 27-03-2021 02:52:17 11.5 C 67 %
19 27-03-2021 03:02:18 11.5 C 67 %
20 27-03-2021 03:12:18 11.5 C 67 %
21 27-03-2021 03:22:17 11.4 C 67 %
22 27-03-2021 03:32:18 11.5 C 67 %
23 27-03-2021 03:42:18 11.4 C 67 %
24 27-03-2021 03:52:17 11.4 C 67 %
25 27-03-2021 04:02:18 11.4 C 67 %
Sensor: Nr:Datum:Temp:Feuchte:
G-T/H 26 27-03-2021 04:12:18 11.4 C 67 %
27 27-03-2021 04:22:17 11.4 C 67 %
28 27-03-2021 04:32:17 11.4 C 67 %
29 27-03-2021 04:42:17 11.3 C 67 %
30 27-03-2021 04:52:17 11.3 C 67 %
31 27-03-2021 05:02:18 11.3 C 67 %
32 27-03-2021 05:12:18 11.3 C 67 %
33 27-03-2021 05:22:17 11.3 C 67 %
34 27-03-2021 05:32:17 11.2 C 67 %
35 27-03-2021 05:42:18 11.2 C 67 %
36 27-03-2021 05:52:17 11.1 C 66 %
37 27-03-2021 06:02:17 11.1 C 66 %
38 27-03-2021 06:12:17 11.1 C 65 %
39 27-03-2021 06:22:18 11.1 C 65 %
40 27-03-2021 06:32:17 11 C 64 %
41 27-03-2021 06:42:18 11 C 64 %
42 27-03-2021 06:52:18 11 C 64 %
43 27-03-2021 07:02:17 11 C 64 %
44 27-03-2021 07:12:17 11 C 63 %
45 27-03-2021 07:22:18 11 C 63 %
46 27-03-2021 07:32:17 11 C 64 %
47 27-03-2021 07:42:17 11 C 64 %
48 27-03-2021 07:52:17 11 C 64 %
49 27-03-2021 08:02:18 10.9 C 65 %
50 27-03-2021 08:12:18 10.9 C 65 %
Sensor: Nr:Datum:Temp:Feuchte:
G-T/H 51 27-03-2021 08:22:17 10.9 C 65 %
52 27-03-2021 08:32:17 10.9 C 65 %
53 27-03-2021 08:42:17 10.9 C 65 %
54 27-03-2021 08:52:18 10.9 C 66 %
55 27-03-2021 09:02:17 10.9 C 66 %
56 27-03-2021 09:12:17 10.9 C 66 %
57 27-03-2021 09:22:18 10.9 C 66 %
58 27-03-2021 09:32:18 10.9 C 66 %
59 27-03-2021 09:42:18 10.9 C 66 %
60 27-03-2021 09:52:18 10.9 C 66 %
61 27-03-2021 10:02:17 10.9 C 66 %
62 27-03-2021 10:12:17 10.8 C 66 %
63 27-03-2021 10:22:18 10.8 C 66 %
64 27-03-2021 10:32:18 10.7 C 65 %
65 27-03-2021 10:42:18 10.7 C 64 %
66 27-03-2021 10:52:17 10.7 C 64 %
67 27-03-2021 11:02:17 10.7 C 65 %
68 27-03-2021 11:12:17 10.7 C 65 %
69 27-03-2021 11:22:17 10.7 C 65 %
70 27-03-2021 11:32:17 10.7 C 65 %
71 27-03-2021 11:42:17 10.8 C 65 %
72 27-03-2021 11:52:17 10.8 C 66 %
73 27-03-2021 12:02:18 10.8 C 66 %
74 27-03-2021 12:12:18 10.8 C 66 %
75 27-03-2021 12:22:17 10.8 C 66 %
Sensor: Nr:Datum:Temp:Feuchte:
G-T/H 76 27-03-2021 12:32:17 10.8 C 66 %
77 27-03-2021 12:42:17 10.8 C 66 %
78 27-03-2021 12:52:18 10.8 C 66 %
79 27-03-2021 13:02:18 10.8 C 66 %
80 27-03-2021 13:12:18 10.8 C 67 %
81 27-03-2021 13:22:17 10.7 C 67 %
82 27-03-2021 13:32:18 10.8 C 67 %
83 27-03-2021 13:42:18 10.7 C 67 %
84 27-03-2021 13:52:18 10.7 C 67 %
85 27-03-2021 14:02:18 10.7 C 67 %
86 27-03-2021 14:12:18 10.7 C 67 %
87 27-03-2021 14:22:18 10.7 C 67 %
88 27-03-2021 14:32:18 10.7 C 67 %
89 27-03-2021 14:42:18 10.7 C 67 %
90 27-03-2021 14:52:18 10.7 C 67 %
91 27-03-2021 15:02:18 10.7 C 67 %
92 27-03-2021 15:12:18 10.7 C 67 %
93 27-03-2021 15:22:17 10.7 C 67 %
94 27-03-2021 15:32:17 10.7 C 67 %
95 27-03-2021 15:42:17 10.7 C 67 %
96 27-03-2021 15:52:17 10.7 C 67 %
97 27-03-2021 16:02:17 10.7 C 67 %
98 27-03-2021 16:12:17 10.7 C 67 %
99 27-03-2021 16:22:18 10.7 C 66 %
100 27-03-2021 16:32:18 10.7 C 66 %
Sensor: Nr:Datum:Temp:Feuchte:
G-T/H 101 27-03-2021 16:42:18 10.7 C 66 %
102 27-03-2021 16:52:18 10.7 C 66 %
103 27-03-2021 17:02:18 10.7 C 66 %
104 27-03-2021 17:12:18 10.7 C 66 %
105 27-03-2021 17:22:17 10.7 C 66 %
106 27-03-2021 17:32:18 10.7 C 66 %
107 27-03-2021 17:42:18 10.7 C 66 %
108 27-03-2021 17:52:19 10.7 C 66 %
109 27-03-2021 18:02:18 10.7 C 66 %
110 27-03-2021 18:12:18 10.7 C 66 %
111 27-03-2021 18:22:17 10.6 C 67 %
112 27-03-2021 18:32:18 10.6 C 67 %
113 27-03-2021 18:42:18 10.6 C 67 %
114 27-03-2021 18:52:18 10.6 C 67 %
115 27-03-2021 19:02:18 10.6 C 67 %
116 27-03-2021 19:12:18 10.6 C 67 %
117 27-03-2021 19:22:18 10.5 C 67 %
118 27-03-2021 19:32:18 10.5 C 67 %
119 27-03-2021 19:42:18 10.5 C 67 %
120 27-03-2021 19:52:17 10.5 C 67 %
121 27-03-2021 20:02:18 10.5 C 67 %
122 27-03-2021 20:12:18 10.5 C 67 %
123 27-03-2021 20:22:17 10.5 C 67 %
124 27-03-2021 20:32:17 10.5 C 67 %
125 27-03-2021 20:42:17 10.5 C 67 %
Sensor: Nr:Datum:Temp:Feuchte:
G-T/H 126 27-03-2021 20:52:17 10.4 C 67 %
127 27-03-2021 21:02:17 10.5 C 67 %
128 27-03-2021 21:12:17 10.4 C 67 %
129 27-03-2021 21:22:18 10.4 C 67 %
130 27-03-2021 21:32:18 10.4 C 67 %
131 27-03-2021 21:42:18 10.4 C 68 %
132 27-03-2021 21:52:18 10.4 C 68 %
133 27-03-2021 22:02:17 10.4 C 68 %
134 27-03-2021 22:12:17 10.4 C 68 %
135 27-03-2021 22:22:18 10.4 C 68 %
136 27-03-2021 22:32:17 10.3 C 68 %
137 27-03-2021 22:42:17 10.3 C 68 %
138 27-03-2021 22:52:17 10.3 C 68 %
139 27-03-2021 23:02:18 10.3 C 68 %
140 27-03-2021 23:12:18 10.3 C 68 %
141 27-03-2021 23:22:18 10.2 C 68 %
142 27-03-2021 23:32:17 10.2 C 67 %
143 27-03-2021 23:42:17 10.2 C 67 %
144 27-03-2021 23:52:18 10.2 C 67 %
145 28-03-2021 00:02:17 10.2 C 67 %
146 28-03-2021 00:12:17 10.1 C 67 %
147 28-03-2021 00:22:17 10.1 C 67 %
148 28-03-2021 00:32:17 10.1 C 67 %
149 28-03-2021 00:42:17 10.1 C 67 %
150 28-03-2021 00:52:18 10.1 C 67 %
Sensor: Nr:Datum:Temp:Feuchte:
G-T/H 151 28-03-2021 01:02:17 10.1 C 67 %
152 28-03-2021 01:12:17 10 C 67 %
153 28-03-2021 01:22:17 10 C 67 %
154 28-03-2021 01:32:17 10 C 67 %
155 28-03-2021 01:42:17 10 C 67 %
156 28-03-2021 01:52:17 10 C 67 %
157 28-03-2021 02:02:17 10 C 67 %
158 28-03-2021 02:12:17 10 C 67 %
159 28-03-2021 02:22:17 10 C 67 %
160 28-03-2021 02:32:17 10 C 67 %
161 28-03-2021 02:42:18 10 C 67 %
162 28-03-2021 02:52:18 9.9 C 68 %
163 28-03-2021 04:02:18 9.9 C 68 %
164 28-03-2021 04:12:18 10 C 67 %
165 28-03-2021 04:22:18 9.9 C 68 %
166 28-03-2021 04:32:17 9.9 C 68 %
167 28-03-2021 04:42:17 9.9 C 68 %
168 28-03-2021 04:52:18 9.8 C 68 %
169 28-03-2021 05:02:17 9.8 C 68 %
170 28-03-2021 05:12:17 9.8 C 69 %
171 28-03-2021 05:22:17 9.8 C 69 %
172 28-03-2021 05:32:18 9.8 C 69 %
173 28-03-2021 05:42:18 9.7 C 69 %
174 28-03-2021 05:52:18 9.7 C 69 %
175 28-03-2021 06:02:17 9.7 C 69 %
Sensor: Nr:Datum:Temp:Feuchte:
G-T/H 176 28-03-2021 06:12:18 9.7 C 69 %
177 28-03-2021 06:22:17 9.7 C 69 %
178 28-03-2021 06:32:17 9.7 C 69 %
179 28-03-2021 06:42:17 9.7 C 69 %
180 28-03-2021 06:52:17 9.7 C 69 %
181 28-03-2021 07:02:18 9.7 C 69 %
182 28-03-2021 07:12:18 9.6 C 69 %
183 28-03-2021 07:22:17 9.6 C 69 %
184 28-03-2021 07:32:18 9.6 C 69 %
185 28-03-2021 07:42:18 9.6 C 69 %
186 28-03-2021 07:52:18 9.6 C 69 %
187 28-03-2021 08:02:17 9.6 C 69 %
188 28-03-2021 08:12:18 9.6 C 69 %
189 28-03-2021 08:22:17 9.6 C 69 %
190 28-03-2021 08:32:18 9.6 C 69 %
191 28-03-2021 08:42:18 9.6 C 69 %
192 28-03-2021 08:52:18 9.6 C 69 %
193 28-03-2021 09:02:17 9.6 C 69 %
194 28-03-2021 09:12:17 9.6 C 69 %
195 28-03-2021 09:22:18 9.6 C 69 %
196 28-03-2021 09:32:18 9.6 C 69 %
197 28-03-2021 09:42:18 9.6 C 69 %
198 28-03-2021 09:52:18 9.6 C 69 %
199 28-03-2021 10:02:17 9.6 C 69 %
200 28-03-2021 10:12:18 9.6 C 69 %
Sensor: Nr:Datum:Temp:Feuchte:
G-T/H 201 28-03-2021 10:22:18 9.5 C 69 %
202 28-03-2021 10:32:17 9.5 C 69 %
203 28-03-2021 10:42:17 9.5 C 69 %
204 28-03-2021 10:52:17 9.6 C 69 %
205 28-03-2021 11:02:17 9.6 C 69 %
206 28-03-2021 11:12:17 9.6 C 69 %
207 28-03-2021 11:22:17 9.6 C 69 %
208 28-03-2021 11:32:17 9.6 C 69 %
209 28-03-2021 11:42:17 9.6 C 70 %
210 28-03-2021 11:52:17 9.6 C 70 %
211 28-03-2021 12:02:18 9.6 C 70 %
212 28-03-2021 12:12:18 9.6 C 70 %
213 28-03-2021 12:22:18 9.7 C 70 %
214 28-03-2021 12:32:18 9.7 C 69 %
215 28-03-2021 12:42:18 9.7 C 69 %
216 28-03-2021 12:52:17 9.6 C 69 %
217 28-03-2021 13:02:17 9.7 C 69 %
218 28-03-2021 13:12:17 9.7 C 69 %
219 28-03-2021 13:22:18 9.7 C 69 %
220 28-03-2021 13:32:18 9.7 C 69 %
221 28-03-2021 13:42:18 9.7 C 69 %
222 28-03-2021 13:52:18 9.8 C 69 %
223 28-03-2021 14:02:18 9.7 C 69 %
224 28-03-2021 14:12:18 9.8 C 69 %
225 28-03-2021 14:22:18 9.8 C 69 %
Sensor: Nr:Datum:Temp:Feuchte:
G-T/H 226 28-03-2021 14:32:18 9.8 C 69 %
227 28-03-2021 14:42:18 9.8 C 69 %
228 28-03-2021 14:52:18 9.9 C 69 %
229 28-03-2021 15:02:18 10 C 68 %
230 28-03-2021 15:12:18 10 C 68 %
231 28-03-2021 15:22:18 9.9 C 69 %
232 28-03-2021 15:32:18 10 C 68 %
233 28-03-2021 15:42:18 10 C 68 %
234 28-03-2021 15:52:18 10 C 68 %
235 28-03-2021 16:02:18 10 C 68 %
236 28-03-2021 16:12:18 10.1 C 68 %
237 28-03-2021 16:22:18 10.1 C 68 %
238 28-03-2021 16:32:17 10.1 C 68 %
239 28-03-2021 16:42:18 10.1 C 68 %
240 28-03-2021 16:52:17 10.2 C 68 %
241 28-03-2021 17:02:18 10.2 C 68 %
242 28-03-2021 17:12:18 10.2 C 68 %
243 28-03-2021 17:22:18 10.2 C 68 %
244 28-03-2021 17:32:18 10.2 C 68 %
245 28-03-2021 17:42:18 10.3 C 68 %
246 28-03-2021 17:52:18 10.3 C 68 %
247 28-03-2021 18:02:17 10.3 C 68 %
248 28-03-2021 18:12:17 10.4 C 68 %
249 28-03-2021 18:22:17 10.4 C 68 %
250 28-03-2021 18:32:17 10.4 C 68 %
Sensor: Nr:Datum:Temp:Feuchte:
G-T/H 251 28-03-2021 18:42:17 10.4 C 68 %
252 28-03-2021 18:52:17 10.5 C 68 %
253 28-03-2021 19:02:18 10.5 C 68 %
254 28-03-2021 19:12:18 10.5 C 68 %
255 28-03-2021 19:22:18 10.5 C 68 %
256 28-03-2021 19:32:18 10.5 C 68 %
257 28-03-2021 19:42:18 10.5 C 68 %
258 28-03-2021 19:52:18 10.5 C 68 %
259 28-03-2021 20:02:18 10.5 C 69 %
260 28-03-2021 20:12:18 10.5 C 69 %
261 28-03-2021 20:22:17 10.5 C 69 %
262 28-03-2021 20:32:18 10.5 C 69 %
263 28-03-2021 20:42:18 10.5 C 69 %
264 28-03-2021 20:52:17 10.6 C 69 %
265 28-03-2021 21:02:18 10.6 C 69 %
266 28-03-2021 21:12:18 10.6 C 69 %
267 28-03-2021 21:22:17 10.6 C 69 %
268 28-03-2021 21:32:17 10.6 C 69 %
269 28-03-2021 21:42:17 10.6 C 69 %
270 28-03-2021 21:52:18 10.6 C 69 %
271 28-03-2021 22:02:17 10.7 C 69 %
272 28-03-2021 22:12:18 10.6 C 69 %
273 28-03-2021 22:22:18 10.6 C 69 %
274 28-03-2021 22:32:18 10.7 C 69 %
275 28-03-2021 22:42:18 10.7 C 69 %
Sensor: Nr:Datum:Temp:Feuchte:
G-T/H 276 28-03-2021 22:52:18 10.7 C 69 %
277 28-03-2021 23:02:18 10.7 C 69 %
278 28-03-2021 23:12:18 10.7 C 69 %
279 28-03-2021 23:22:18 10.7 C 69 %
280 28-03-2021 23:32:18 10.7 C 69 %
281 28-03-2021 23:42:18 10.7 C 70 %
282 28-03-2021 23:52:17 10.7 C 70 %
283 29-03-2021 00:02:17 10.7 C 70 %
284 29-03-2021 00:12:17 10.7 C 70 %
285 29-03-2021 00:22:17 10.7 C 70 %
286 29-03-2021 00:32:17 10.7 C 70 %
287 29-03-2021 00:42:17 10.7 C 70 %
288 29-03-2021 00:52:17 10.7 C 70 %
289 29-03-2021 01:02:17 10.7 C 70 %
290 29-03-2021 01:12:18 10.7 C 70 %
291 29-03-2021 01:22:17 10.7 C 70 %
292 29-03-2021 01:32:17 10.7 C 70 %
293 29-03-2021 01:42:17 10.7 C 70 %
294 29-03-2021 01:52:18 10.7 C 70 %
295 29-03-2021 02:02:17 10.7 C 70 %
296 29-03-2021 02:12:17 10.6 C 70 %
297 29-03-2021 02:22:17 10.6 C 70 %
298 29-03-2021 02:32:17 10.7 C 70 %
299 29-03-2021 02:42:17 10.6 C 70 %
300 29-03-2021 02:52:17 10.7 C 70 %
Sensor: Nr:Datum:Temp:Feuchte:
G-T/H 301 29-03-2021 03:02:18 10.7 C 70 %
302 29-03-2021 03:12:18 10.7 C 70 %
303 29-03-2021 03:22:17 10.6 C 70 %
304 29-03-2021 03:32:17 10.6 C 70 %
305 29-03-2021 03:42:17 10.6 C 70 %
306 29-03-2021 03:52:17 10.6 C 70 %
307 29-03-2021 04:02:17 10.6 C 70 %
308 29-03-2021 04:12:18 10.5 C 70 %
309 29-03-2021 04:22:17 10.5 C 69 %
310 29-03-2021 04:32:17 10.5 C 69 %
311 29-03-2021 04:42:18 10.5 C 69 %
312 29-03-2021 04:52:17 10.4 C 69 %
313 29-03-2021 05:02:17 10.4 C 68 %
314 29-03-2021 05:12:18 10.4 C 68 %
315 29-03-2021 05:22:18 10.4 C 68 %
316 29-03-2021 05:32:17 10.3 C 68 %
317 29-03-2021 05:42:18 10.3 C 67 %
318 29-03-2021 05:52:17 10.3 C 67 %
319 29-03-2021 06:02:17 10.3 C 67 %
320 29-03-2021 06:12:17 10.2 C 67 %
321 29-03-2021 06:22:17 10.2 C 67 %
322 29-03-2021 06:32:18 10.2 C 66 %
323 29-03-2021 06:42:18 10.2 C 66 %
324 29-03-2021 06:52:18 10.2 C 66 %
325 29-03-2021 07:02:18 10.2 C 66 %
Sensor: Nr:Datum:Temp:Feuchte:
G-T/H 326 29-03-2021 07:12:18 10.2 C 66 %
327 29-03-2021 07:22:18 10.1 C 66 %
328 29-03-2021 07:32:18 10.1 C 66 %
329 29-03-2021 07:42:18 10.1 C 66 %
330 29-03-2021 07:52:18 10.1 C 66 %
331 29-03-2021 08:02:18 10.1 C 66 %
332 29-03-2021 08:12:18 10.1 C 66 %
333 29-03-2021 08:22:18 10.1 C 67 %
334 29-03-2021 08:32:18 10.1 C 67 %
335 29-03-2021 08:42:18 10.1 C 67 %
336 29-03-2021 08:52:18 10 C 67 %
337 29-03-2021 09:02:18 10 C 67 %
338 29-03-2021 09:12:18 10 C 67 %
339 29-03-2021 09:22:17 10 C 67 %
340 29-03-2021 09:32:18 10 C 67 %
341 29-03-2021 09:42:18 10 C 67 %
342 29-03-2021 09:52:18 10 C 67 %
343 29-03-2021 10:02:17 10 C 67 %
344 29-03-2021 10:12:17 10 C 67 %
345 29-03-2021 10:22:17 10 C 67 %
346 29-03-2021 10:32:17 10 C 67 %
347 29-03-2021 10:42:18 10 C 68 %
348 29-03-2021 10:52:18 10 C 68 %
349 29-03-2021 11:02:18 10 C 68 %
350 29-03-2021 11:12:18 10 C 68 %
Sensor: Nr:Datum:Temp:Feuchte:
G-T/H 351 29-03-2021 11:22:18 10 C 68 %
352 29-03-2021 11:32:18 10 C 68 %
353 29-03-2021 11:42:18 10 C 68 %
354 29-03-2021 11:52:18 10 C 68 %
355 29-03-2021 12:02:18 10 C 68 %
356 29-03-2021 12:12:18 10.1 C 68 %
357 29-03-2021 12:22:18 10.1 C 68 %
358 29-03-2021 12:32:17 10.1 C 68 %
359 29-03-2021 12:42:17 10.1 C 68 %
360 29-03-2021 12:52:18 10.1 C 68 %
361 29-03-2021 13:02:18 10.1 C 68 %
362 29-03-2021 13:12:18 10.2 C 68 %
363 29-03-2021 13:22:17 10.2 C 68 %
364 29-03-2021 13:32:17 10.2 C 68 %
365 29-03-2021 13:42:17 10.2 C 68 %
366 29-03-2021 13:52:17 10.2 C 68 %
367 29-03-2021 14:02:18 10.3 C 68 %
368 29-03-2021 14:12:18 10.3 C 68 %
369 29-03-2021 14:22:17 10.3 C 68 %
370 29-03-2021 14:32:18 10.4 C 68 %
371 29-03-2021 14:42:18 10.4 C 68 %
372 29-03-2021 14:52:18 10.4 C 68 %
373 29-03-2021 15:02:17 10.5 C 68 %
374 29-03-2021 15:12:17 10.5 C 68 %
375 29-03-2021 15:22:17 10.5 C 68 %
Sensor: Nr:Datum:Temp:Feuchte:
G-T/H 376 29-03-2021 15:32:18 10.5 C 68 %
377 29-03-2021 15:42:18 10.6 C 68 %
378 29-03-2021 15:52:18 10.6 C 68 %
379 29-03-2021 16:02:18 10.6 C 68 %
380 29-03-2021 16:12:18 12.6 C 68 %
381 29-03-2021 16:22:18 13.7 C 66 %
382 29-03-2021 16:32:17 14.2 C 64 %
383 29-03-2021 16:42:17 14.6 C 62 %
384 29-03-2021 16:52:18 14.7 C 60 %
385 29-03-2021 17:02:17 14.9 C 58 %
386 29-03-2021 17:12:17 15.1 C 56 %
387 29-03-2021 17:22:18 15.2 C 54 %
388 29-03-2021 17:32:17 15.6 C 52 %
389 29-03-2021 17:42:17 15.7 C 50 %
390 29-03-2021 18:02:17 15.9 C 37 %
391 29-03-2021 18:12:17 16.1 C 36 %
392 29-03-2021 18:22:18 16.2 C 37 %
393 29-03-2021 18:32:18 16.3 C 36 %
394 29-03-2021 18:42:18 16.4 C 37 %
395 29-03-2021 18:52:18 16.4 C 37 %
396 29-03-2021 19:02:18 16.4 C 38 %
397 29-03-2021 19:12:18 16.2 C 40 %
398 29-03-2021 19:22:17 15.9 C 41 %
399 29-03-2021 19:32:17 15.6 C 42 %
400 29-03-2021 19:42:18 15.2 C 43 %
Sensor: Nr:Datum:Temp:Feuchte:
G-T/H 401 29-03-2021 19:52:18 14.9 C 45 %
402 29-03-2021 20:02:18 14.6 C 46 %
403 29-03-2021 20:12:18 14.2 C 47 %
404 29-03-2021 20:22:17 14 C 48 %
405 29-03-2021 20:32:17 13.9 C 50 %
406 29-03-2021 20:42:18 13.7 C 51 %
407 29-03-2021 20:52:17 13.7 C 52 %
408 29-03-2021 21:02:18 13.5 C 53 %
409 29-03-2021 21:12:18 13.5 C 53 %
410 29-03-2021 21:22:17 13.4 C 54 %
411 29-03-2021 21:32:17 13.3 C 54 %
412 29-03-2021 21:42:17 13.2 C 55 %
413 29-03-2021 21:52:17 13.2 C 55 %
414 29-03-2021 22:02:18 13.2 C 56 %
415 29-03-2021 22:12:18 13.1 C 56 %
416 29-03-2021 22:22:18 13.1 C 56 %
417 29-03-2021 22:32:18 13 C 57 %
418 29-03-2021 22:42:18 13 C 57 %
419 29-03-2021 22:52:18 13 C 57 %
420 29-03-2021 23:02:18 12.9 C 59 %
421 29-03-2021 23:12:18 12.9 C 59 %
422 29-03-2021 23:22:18 12.8 C 59 %
423 29-03-2021 23:32:17 12.8 C 59 %
424 29-03-2021 23:42:17 12.8 C 59 %
425 29-03-2021 23:52:18 12.8 C 60 %
Sensor: Nr:Datum:Temp:Feuchte:
G-T/H 426 30-03-2021 00:02:17 12.7 C 60 %
427 30-03-2021 00:12:17 12.7 C 60 %
428 30-03-2021 00:22:17 12.7 C 60 %
429 30-03-2021 00:32:17 12.7 C 60 %
430 30-03-2021 00:42:17 12.6 C 60 %
431 30-03-2021 00:52:17 12.6 C 60 %
432 30-03-2021 01:02:18 12.6 C 61 %
433 30-03-2021 01:12:18 12.5 C 61 %
434 30-03-2021 01:22:17 12.5 C 61 %
435 30-03-2021 01:32:17 12.5 C 61 %
436 30-03-2021 01:42:17 12.5 C 61 %
437 30-03-2021 01:52:18 12.5 C 61 %
438 30-03-2021 02:02:18 12.4 C 61 %
439 30-03-2021 02:12:18 12.4 C 61 %
440 30-03-2021 02:22:18 12.4 C 61 %
441 30-03-2021 02:32:17 12.4 C 61 %
442 30-03-2021 02:42:17 12.4 C 61 %
443 30-03-2021 02:52:17 12.3 C 62 %
444 30-03-2021 03:02:17 12.3 C 62 %
445 30-03-2021 03:12:17 12.2 C 62 %
446 30-03-2021 03:22:17 12.2 C 62 %
447 30-03-2021 03:32:18 12.2 C 62 %
448 30-03-2021 03:42:18 12.2 C 62 %
449 30-03-2021 03:52:17 12.2 C 62 %
450 30-03-2021 04:02:17 12.2 C 62 %
Sensor: Nr:Datum:Temp:Feuchte:
G-T/H 451 30-03-2021 04:12:17 12.1 C 62 %
452 30-03-2021 04:22:17 12.1 C 62 %
453 30-03-2021 04:32:17 12 C 62 %
454 30-03-2021 04:42:17 12 C 62 %
455 30-03-2021 04:52:17 12 C 62 %
456 30-03-2021 05:02:17 12 C 62 %
457 30-03-2021 05:12:17 11.9 C 63 %
458 30-03-2021 05:22:17 11.9 C 63 %
459 30-03-2021 05:32:18 11.9 C 63 %
460 30-03-2021 05:42:18 11.9 C 63 %
461 30-03-2021 05:52:17 11.8 C 63 %
462 30-03-2021 06:02:18 11.8 C 63 %
463 30-03-2021 06:12:18 11.8 C 63 %
464 30-03-2021 06:22:18 11.8 C 63 %
465 30-03-2021 06:32:17 11.7 C 63 %
466 30-03-2021 06:42:17 11.7 C 63 %
467 30-03-2021 06:52:18 11.7 C 63 %
468 30-03-2021 07:02:17 11.7 C 63 %
469 30-03-2021 07:12:17 11.6 C 63 %
470 30-03-2021 07:22:18 11.6 C 63 %
471 30-03-2021 07:32:18 11.6 C 63 %
472 30-03-2021 07:42:18 11.6 C 63 %
473 30-03-2021 07:52:17 11.5 C 63 %
474 30-03-2021 08:02:17 11.5 C 63 %
475 30-03-2021 08:12:17 11.5 C 63 %
Sensor: Nr:Datum:Temp:Feuchte:
G-T/H 476 30-03-2021 08:22:18 11.4 C 63 %
477 30-03-2021 08:32:18 11.4 C 63 %
478 30-03-2021 08:42:18 11.4 C 63 %
479 30-03-2021 08:52:17 11.4 C 63 %
480 30-03-2021 09:02:17 11.3 C 63 %
481 30-03-2021 09:12:17 11.3 C 63 %
482 30-03-2021 09:22:17 11.2 C 63 %
483 30-03-2021 09:32:17 11.3 C 63 %
484 30-03-2021 09:42:17 11.2 C 63 %
485 30-03-2021 09:52:18 11.2 C 63 %
486 30-03-2021 10:02:18 11.2 C 63 %
487 30-03-2021 10:12:18 11.2 C 63 %
488 30-03-2021 10:22:17 11.2 C 64 %
489 30-03-2021 10:32:18 11.1 C 64 %
490 30-03-2021 10:42:18 11.1 C 64 %
491 30-03-2021 10:52:17 11.1 C 64 %
492 30-03-2021 11:02:17 11.1 C 64 %
493 30-03-2021 11:12:17 11.1 C 64 %
494 30-03-2021 11:22:18 11.1 C 64 %
495 30-03-2021 11:32:17 11.1 C 64 %
496 30-03-2021 11:42:17 11 C 64 %
497 30-03-2021 11:52:17 11.1 C 64 %
498 30-03-2021 12:02:17 11 C 64 %
499 30-03-2021 12:12:17 11.1 C 65 %
500 30-03-2021 12:22:18 11.1 C 65 %
Sensor: Nr:Datum:Temp:Feuchte:
G-T/H 501 30-03-2021 12:32:17 11.1 C 65 %
502 30-03-2021 12:42:17 11.1 C 65 %
503 30-03-2021 12:52:17 11.1 C 65 %
504 30-03-2021 13:02:17 11.1 C 65 %
505 30-03-2021 13:12:17 11.1 C 65 %
506 30-03-2021 13:22:17 11.1 C 65 %
507 30-03-2021 13:32:17 11.1 C 65 %
508 30-03-2021 13:42:17 11.2 C 65 %
509 30-03-2021 13:52:17 11.1 C 65 %
510 30-03-2021 14:02:17 11.2 C 65 %
511 30-03-2021 14:12:17 11.2 C 65 %
512 30-03-2021 14:22:18 11.2 C 65 %
513 30-03-2021 14:32:18 11.2 C 65 %
514 30-03-2021 14:42:18 11.3 C 65 %
515 30-03-2021 14:52:18 11.3 C 65 %
516 30-03-2021 15:02:18 11.3 C 65 %
517 30-03-2021 15:12:18 11.4 C 65 %
518 30-03-2021 15:22:18 11.4 C 65 %
519 30-03-2021 15:32:18 11.4 C 65 %
520 30-03-2021 15:42:18 11.4 C 65 %
521 30-03-2021 15:52:17 11.4 C 65 %
522 30-03-2021 16:02:18 11.5 C 65 %
523 30-03-2021 16:12:18 11.5 C 65 %
524 30-03-2021 16:22:18 11.5 C 65 %
525 30-03-2021 16:32:18 11.5 C 65 %
Sensor: Nr:Datum:Temp:Feuchte:
G-T/H 526 30-03-2021 16:42:18 11.6 C 64 %
527 30-03-2021 16:52:17 11.6 C 64 %
528 30-03-2021 17:02:17 11.6 C 64 %
529 30-03-2021 17:12:18 11.7 C 64 %
530 30-03-2021 17:22:17 11.7 C 64 %
531 30-03-2021 17:32:17 11.8 C 64 %
532 30-03-2021 17:42:17 11.8 C 63 %
533 30-03-2021 17:52:17 11.8 C 63 %
534 30-03-2021 18:02:17 11.9 C 63 %
535 30-03-2021 18:12:17 12 C 62 %
536 30-03-2021 18:22:17 12 C 61 %
537 30-03-2021 18:32:17 12 C 61 %
538 30-03-2021 18:42:17 12 C 61 %
539 30-03-2021 18:52:17 12.1 C 61 %
540 30-03-2021 19:02:18 12.1 C 61 %
541 30-03-2021 19:12:18 12.1 C 61 %
542 30-03-2021 19:22:18 12.1 C 61 %
543 30-03-2021 19:32:17 12.1 C 61 %
544 30-03-2021 19:42:18 12 C 61 %
545 30-03-2021 19:52:17 12.1 C 61 %
546 30-03-2021 20:02:17 12.1 C 61 %
547 30-03-2021 20:12:17 12 C 61 %
548 30-03-2021 20:22:18 12 C 61 %
549 30-03-2021 20:32:18 12 C 61 %
550 30-03-2021 20:42:18 12 C 62 %
Sensor: Nr:Datum:Temp:Feuchte:
G-T/H 551 30-03-2021 20:52:17 12.1 C 62 %
552 30-03-2021 21:02:18 12.1 C 62 %
553 30-03-2021 21:12:18 12 C 62 %
554 30-03-2021 21:22:18 12.1 C 62 %
555 30-03-2021 21:32:18 12.1 C 62 %
556 30-03-2021 21:42:18 12.1 C 62 %
557 30-03-2021 21:52:17 12.1 C 62 %
558 30-03-2021 22:02:17 12.1 C 62 %
559 30-03-2021 22:12:17 12.1 C 63 %
560 30-03-2021 22:22:18 12 C 63 %
561 30-03-2021 22:32:17 12.1 C 63 %
562 30-03-2021 22:42:17 12 C 63 %
563 30-03-2021 22:52:17 12.1 C 63 %
564 30-03-2021 23:02:18 12.1 C 63 %
565 30-03-2021 23:12:18 12.1 C 63 %
566 30-03-2021 23:22:18 12.1 C 63 %
567 30-03-2021 23:32:18 12 C 63 %
568 30-03-2021 23:42:18 12.1 C 63 %
569 30-03-2021 23:52:18 12 C 63 %
570 31-03-2021 00:02:17 12.1 C 63 %
571 31-03-2021 00:12:17 12.1 C 63 %
572 31-03-2021 00:22:17 12 C 63 %
573 31-03-2021 00:32:17 12 C 64 %
574 31-03-2021 00:42:17 12 C 64 %
575 31-03-2021 00:52:17 12 C 64 %
Sensor: Nr:Datum:Temp:Feuchte:
G-T/H 576 31-03-2021 01:02:17 12 C 64 %
577 31-03-2021 01:12:17 12 C 64 %
578 31-03-2021 01:22:17 12 C 64 %
579 31-03-2021 01:32:18 12 C 64 %
580 31-03-2021 01:42:18 12 C 64 %
581 31-03-2021 01:52:17 12 C 64 %
582 31-03-2021 02:02:17 12 C 64 %
583 31-03-2021 02:12:17 12 C 64 %
584 31-03-2021 02:22:17 12 C 64 %
585 31-03-2021 02:32:17 12 C 64 %
586 31-03-2021 02:42:17 12 C 64 %
587 31-03-2021 02:52:17 11.9 C 65 %
588 31-03-2021 03:02:17 11.9 C 65 %
589 31-03-2021 03:12:17 11.9 C 65 %
590 31-03-2021 03:22:17 11.9 C 65 %
591 31-03-2021 03:32:18 11.9 C 65 %
592 31-03-2021 03:42:18 11.8 C 65 %
593 31-03-2021 03:52:17 11.8 C 65 %
594 31-03-2021 04:02:17 11.8 C 65 %
595 31-03-2021 04:12:17 11.8 C 65 %
596 31-03-2021 04:22:17 11.8 C 65 %
597 31-03-2021 04:32:17 11.7 C 65 %
598 31-03-2021 04:42:18 11.7 C 64 %
599 31-03-2021 04:52:17 11.7 C 64 %
600 31-03-2021 05:02:17 11.6 C 64 %
Sensor: Nr:Datum:Temp:Feuchte:
G-T/H 601 31-03-2021 05:12:17 11.6 C 63 %
602 31-03-2021 05:22:18 11.6 C 63 %
603 31-03-2021 05:32:18 11.5 C 63 %
604 31-03-2021 05:42:18 11.5 C 62 %
605 31-03-2021 05:52:17 11.5 C 62 %
606 31-03-2021 06:02:17 11.5 C 62 %
607 31-03-2021 06:12:17 11.4 C 62 %
608 31-03-2021 06:22:17 11.4 C 62 %
609 31-03-2021 06:32:17 11.4 C 62 %
610 31-03-2021 06:42:17 11.3 C 61 %
611 31-03-2021 06:52:18 11.3 C 61 %
612 31-03-2021 07:02:17 11.3 C 61 %
613 31-03-2021 07:12:17 11.2 C 61 %
614 31-03-2021 07:22:18 11.2 C 61 %
615 31-03-2021 07:32:18 11.2 C 61 %
616 31-03-2021 07:42:18 11.2 C 61 %
617 31-03-2021 07:52:18 11.2 C 61 %
618 31-03-2021 08:02:17 11.2 C 61 %
619 31-03-2021 08:12:17 11.2 C 62 %
620 31-03-2021 08:22:18 11.2 C 62 %
621 31-03-2021 08:32:18 11.2 C 62 %
622 31-03-2021 08:42:18 11.2 C 62 %
623 31-03-2021 08:52:18 11.2 C 62 %
624 31-03-2021 09:02:17 11.1 C 62 %
625 31-03-2021 09:12:18 11.1 C 62 %
Sensor: Nr:Datum:Temp:Feuchte:
G-T/H 626 31-03-2021 09:22:18 11.1 C 62 %
627 31-03-2021 09:32:17 11.1 C 63 %
628 31-03-2021 09:42:18 11.1 C 63 %
629 31-03-2021 09:52:18 11 C 63 %
630 31-03-2021 10:02:18 11.1 C 63 %
631 31-03-2021 10:12:18 11 C 63 %
632 31-03-2021 10:22:18 11 C 63 %
633 31-03-2021 10:32:18 11 C 63 %
634 31-03-2021 10:42:18 11 C 63 %
635 31-03-2021 10:52:18 11 C 64 %
636 31-03-2021 11:02:18 11 C 64 %
637 31-03-2021 11:12:18 11 C 64 %
638 31-03-2021 11:22:18 11 C 64 %
639 31-03-2021 11:32:18 11 C 64 %
640 31-03-2021 11:42:18 11 C 64 %
641 31-03-2021 11:52:18 11 C 64 %
642 31-03-2021 12:02:17 11.1 C 64 %
643 31-03-2021 12:12:17 11.1 C 64 %
644 31-03-2021 12:22:17 11.1 C 64 %
645 31-03-2021 12:32:17 11.1 C 64 %
646 31-03-2021 12:42:17 11.1 C 64 %
647 31-03-2021 12:52:18 11.1 C 65 %
648 31-03-2021 13:02:17 11.1 C 65 %
649 31-03-2021 13:12:17 11.2 C 65 %
650 31-03-2021 13:22:17 11.2 C 65 %
Sensor: Nr:Datum:Temp:Feuchte:
G-T/H 651 31-03-2021 13:32:18 11.2 C 65 %
652 31-03-2021 13:42:18 11.2 C 65 %
653 31-03-2021 13:52:18 11.2 C 65 %
654 31-03-2021 14:02:18 11.3 C 65 %
655 31-03-2021 14:12:18 11.3 C 65 %
656 31-03-2021 14:22:17 11.3 C 65 %
657 31-03-2021 14:32:17 11.4 C 65 %
658 31-03-2021 14:42:18 11.4 C 65 %
659 31-03-2021 14:52:17 11.4 C 65 %
660 31-03-2021 15:02:17 11.5 C 65 %
661 31-03-2021 15:12:18 11.5 C 65 %
662 31-03-2021 15:22:17 11.6 C 65 %
663 31-03-2021 15:32:18 11.6 C 65 %
664 31-03-2021 15:42:18 11.6 C 65 %
665 31-03-2021 15:52:17 11.7 C 65 %
666 31-03-2021 16:02:17 11.7 C 65 %
667 31-03-2021 16:12:18 11.7 C 65 %
668 31-03-2021 16:22:17 11.7 C 65 %
669 31-03-2021 16:32:18 11.8 C 65 %
670 31-03-2021 16:42:18 11.8 C 65 %
671 31-03-2021 16:52:18 11.8 C 65 %
672 31-03-2021 17:02:17 11.9 C 65 %
673 31-03-2021 17:12:18 11.9 C 65 %
674 31-03-2021 17:22:17 12 C 64 %
675 31-03-2021 17:32:18 12 C 64 %
Sensor: Nr:Datum:Temp:Feuchte:
G-T/H 676 31-03-2021 17:42:18 12 C 64 %
677 31-03-2021 17:52:18 12 C 64 %
678 31-03-2021 18:02:18 12.1 C 64 %
679 31-03-2021 18:12:18 12.1 C 64 %
680 31-03-2021 18:22:18 12.1 C 64 %
681 31-03-2021 18:32:18 12.1 C 64 %
682 31-03-2021 18:42:18 12.2 C 64 %
683 31-03-2021 18:52:17 12.2 C 64 %
684 31-03-2021 19:02:17 12.3 C 64 %
685 31-03-2021 19:12:17 12.3 C 64 %
686 31-03-2021 19:22:18 12.3 C 64 %
687 31-03-2021 19:32:17 12.4 C 64 %
688 31-03-2021 19:42:17 12.4 C 64 %
689 31-03-2021 19:52:18 12.4 C 64 %
690 31-03-2021 20:02:17 12.4 C 64 %
691 31-03-2021 20:12:18 12.4 C 64 %
692 31-03-2021 20:22:17 12.4 C 64 %
693 31-03-2021 20:32:18 12.4 C 64 %
694 31-03-2021 20:42:18 12.4 C 64 %
695 31-03-2021 20:52:18 12.4 C 64 %
696 31-03-2021 21:02:18 12.4 C 64 %
697 31-03-2021 21:12:18 12.4 C 64 %
698 31-03-2021 21:22:17 12.4 C 64 %
699 31-03-2021 21:32:17 12.4 C 64 %
700 31-03-2021 21:42:18 12.4 C 64 %
Sensor: Nr:Datum:Temp:Feuchte:
G-T/H 701 31-03-2021 21:52:18 12.4 C 64 %
702 31-03-2021 22:02:18 12.4 C 64 %
703 31-03-2021 22:12:18 12.4 C 64 %
704 31-03-2021 22:22:18 12.4 C 64 %
705 31-03-2021 22:32:17 12.5 C 65 %
706 31-03-2021 22:42:17 12.5 C 65 %
707 31-03-2021 22:52:18 12.5 C 65 %
708 31-03-2021 23:02:18 12.5 C 65 %
709 31-03-2021 23:12:18 12.5 C 65 %
710 31-03-2021 23:22:17 12.5 C 65 %
711 31-03-2021 23:32:18 12.5 C 65 %
712 31-03-2021 23:42:18 12.5 C 65 %
713 31-03-2021 23:52:18 12.5 C 65 %

Legende:
   Min
   Max


Maximal/Minimal-Werte vom 27.03.2021 - 31.03.2021

Sensor Min Max Avg
Temp
(Aussen-T/F)
1.1 °C
30-03-2021  08:02:17
32.4 °C
31-03-2021  15:32:18
10.91 °C
Feuchte
(Aussen-T/F)
20 %
29-03-2021  13:42:17
50 %
30-03-2021  08:22:18
33.76 %
Temp
(G-T/H)
9.5 °C
28-03-2021  10:22:18
16.4 °C
29-03-2021  18:42:18
11.21 °C
Feuchte
(G-T/H)
36 %
29-03-2021  18:12:17
70 %
28-03-2021  11:42:17
64.83 %

Die Daten stammen von einer Davis Vantage Pro 2 Wetter-Station und werden unter Linux mit der Software wview2wettercgi und aufbereitet. Alle Angaben erfolgen ohne Gewähr für ihre Vollständigkeit oder Richtigkeit.
Kontakt: Rainer Krienke krienke@uni-koblenz.de . Meine Webseiten an der Uni Koblenz oder privat.
Version: $Revision: 0.78 $